Terminal Aerodrome Forecast
Issued by NWS

Home | Current Version | Previous Version | Text Only | Print | Product List | Glossary On
Versions: 1 2 3 4 5 6 7 8 9 10 11 12 13 14 15 16 17 18 19 20 21 22 23 24
000
FTUS43 KDLH 202300
TAFBRD
TAF
KBRD 202335Z 2100/2124 18008KT 6SM BR OVC009
     FM210300 18008KT 4SM BR OVC006
     FM210500 17007KT 2SM -FZDZSN OVC005
     FM210900 17007KT 3SM BR OVC004
     FM211900 16006KT 6SM BR OVC009=

USA.gov is the U.S. government's official web portal to all federal, state and local government web resources and services.